createdAt,value
2023-01-28T00:04:07.651Z,15.50
2023-01-28T00:09:10.699Z,14.90
2023-01-28T00:14:14.094Z,10.80
2023-01-28T00:19:16.675Z,13.10
2023-01-28T00:24:18.935Z,13.80
2023-01-28T00:29:21.161Z,14.30
2023-01-28T00:34:23.622Z,14.40
2023-01-28T00:39:27.017Z,14.30
2023-01-28T00:44:29.377Z,12.30
2023-01-28T00:49:31.288Z,13.40
2023-01-28T00:54:34.225Z,11.40
2023-01-28T00:59:37.136Z,13.30
2023-01-28T01:04:40.993Z,13.20
2023-01-28T01:09:44.580Z,14.10
2023-01-28T01:14:46.595Z,12.60
2023-01-28T01:19:49.307Z,14.10
2023-01-28T01:24:52.405Z,11.00
2023-01-28T01:29:56.188Z,11.80
2023-01-28T01:34:59.129Z,10.40
2023-01-28T01:40:05.227Z,11.10
2023-01-28T01:45:18.157Z,10.60
2023-01-28T01:50:36.535Z,11.30
2023-01-28T02:00:42.972Z,12.20
2023-01-28T02:05:45.580Z,12.30
2023-01-28T02:10:56.773Z,10.60
2023-01-28T02:16:00.521Z,11.70
2023-01-28T02:21:21.589Z,11.50
2023-01-28T02:26:44.527Z,10.70
2023-01-28T02:32:12.681Z,11.80
2023-01-28T02:37:54.729Z,12.30
2023-01-28T02:42:58.821Z,9.80
2023-01-28T02:48:01.817Z,10.30
2023-01-28T02:53:47.300Z,9.70
2023-01-28T02:58:55.865Z,10.60
2023-01-28T03:04:01.415Z,8.20
2023-01-28T03:09:23.378Z,10.10
2023-01-28T03:14:46.777Z,10.20
2023-01-28T03:20:08.747Z,8.90
2023-01-28T03:25:33.087Z,11.40
2023-01-28T03:31:14.811Z,9.30
2023-01-28T03:36:35.618Z,9.60
2023-01-28T03:41:37.810Z,10.40
2023-01-28T03:46:40.094Z,10.90
2023-01-28T03:51:42.641Z,12.20
2023-01-28T03:56:45.566Z,11.50
2023-01-28T04:01:50.345Z,10.60
2023-01-28T04:06:54.924Z,11.40
2023-01-28T04:11:58.993Z,11.70
2023-01-28T04:17:02.923Z,11.30
2023-01-28T04:22:07.485Z,10.40
2023-01-28T04:27:10.653Z,9.50
2023-01-28T04:32:14.582Z,10.10
2023-01-28T04:37:18.947Z,11.10
2023-01-28T04:42:21.869Z,11.00
2023-01-28T04:47:25.065Z,10.20
2023-01-28T04:52:29.962Z,9.70
2023-01-28T04:57:34.332Z,12.20
2023-01-28T05:02:38.829Z,9.60
2023-01-28T05:07:42.783Z,10.80
2023-01-28T05:12:48.342Z,11.60
2023-01-28T05:17:51.289Z,12.70
2023-01-28T05:22:55.699Z,11.60
2023-01-28T05:28:00.371Z,12.90
2023-01-28T05:33:03.933Z,11.70
2023-01-28T05:38:08.651Z,11.70
2023-01-28T05:43:12.415Z,12.20
2023-01-28T05:48:17.302Z,12.30
2023-01-28T05:53:20.665Z,16.10
2023-01-28T05:58:23.867Z,13.70
2023-01-28T06:03:26.548Z,16.10
2023-01-28T06:08:29.675Z,13.60
2023-01-28T06:13:33.581Z,14.40
2023-01-28T06:18:36.201Z,16.00
2023-01-28T06:23:39.252Z,14.70
2023-01-28T06:28:42.395Z,17.10
2023-01-28T06:33:45.320Z,16.90
2023-01-28T06:38:48.483Z,14.40
2023-01-28T06:43:52.072Z,14.60
2023-01-28T06:48:54.399Z,15.10
2023-01-28T06:53:57.740Z,16.70
2023-01-28T06:59:02.328Z,13.20
2023-01-28T07:04:05.994Z,14.40
2023-01-28T07:09:07.876Z,15.10
2023-01-28T07:14:12.222Z,17.10
2023-01-28T07:19:14.702Z,15.90
2023-01-28T07:24:18.473Z,14.60
2023-01-28T07:29:20.946Z,15.00
2023-01-28T07:34:25.100Z,20.20
2023-01-28T07:39:28.691Z,13.60
2023-01-28T07:44:31.831Z,19.40
2023-01-28T07:49:36.240Z,13.20
2023-01-28T07:54:41.461Z,18.70
2023-01-28T07:59:45.981Z,12.40
2023-01-28T08:04:48.973Z,13.90
2023-01-28T08:09:53.076Z,17.00
2023-01-28T08:14:56.818Z,16.00
2023-01-28T08:20:01.352Z,15.10
2023-01-28T08:25:06.459Z,17.10
2023-01-28T08:30:12.240Z,16.70
2023-01-28T08:35:15.621Z,18.20
2023-01-28T08:40:18.307Z,16.00
2023-01-28T08:45:27.695Z,14.90
2023-01-28T08:50:36.469Z,13.30
2023-01-28T08:55:40.115Z,12.90
2023-01-28T09:00:44.111Z,13.50
2023-01-28T09:05:46.789Z,13.60
2023-01-28T09:10:54.831Z,12.60
2023-01-28T09:15:57.564Z,13.40
2023-01-28T09:21:00.821Z,14.90
2023-01-28T09:26:06.148Z,16.30
2023-01-28T09:31:12.845Z,14.30
2023-01-28T09:36:17.282Z,15.00
2023-01-28T09:41:50.483Z,13.50
2023-01-28T09:46:52.533Z,13.60
2023-01-28T09:51:55.999Z,15.50
2023-01-28T09:57:12.163Z,16.90
2023-01-28T10:02:29.190Z,19.90
2023-01-28T10:07:55.966Z,18.80
2023-01-28T10:13:31.702Z,18.60
2023-01-28T10:19:17.554Z,17.20
2023-01-28T10:24:40.414Z,18.10
2023-01-28T10:29:46.279Z,17.20
2023-01-28T10:34:51.896Z,20.80
2023-01-28T10:39:58.956Z,17.30
2023-01-28T10:45:05.532Z,19.40
2023-01-28T10:50:19.665Z,18.80
2023-01-28T10:55:26.849Z,17.30
2023-01-28T11:00:37.253Z,17.70
2023-01-28T11:05:51.416Z,18.30
2023-01-28T11:10:58.777Z,28.70
2023-01-28T11:16:06.721Z,17.90
2023-01-28T11:21:29.898Z,20.50
2023-01-28T11:26:37.199Z,21.50
2023-01-28T11:31:43.895Z,18.80
2023-01-28T11:37:08.447Z,17.90
2023-01-28T11:42:18.731Z,18.70
2023-01-28T11:47:41.380Z,18.30
2023-01-28T11:53:07.363Z,15.50
2023-01-28T11:58:17.689Z,16.70
2023-01-28T12:03:41.234Z,16.00
2023-01-28T12:08:54.125Z,18.40
2023-01-28T12:14:11.765Z,15.80
2023-01-28T12:19:34.486Z,14.00
2023-01-28T12:24:53.280Z,16.10
2023-01-28T12:30:19.708Z,14.00
2023-01-28T12:35:51.026Z,15.90
2023-01-28T12:41:08.632Z,16.10
2023-01-28T12:51:32.060Z,14.90
2023-01-28T12:56:41.363Z,13.40
2023-01-28T13:01:56.109Z,15.10
2023-01-28T13:07:15.307Z,15.70
2023-01-28T13:12:24.069Z,15.50
2023-01-28T13:17:31.737Z,15.70
2023-01-28T13:22:38.888Z,15.50
2023-01-28T13:27:41.793Z,16.60
2023-01-28T13:32:57.548Z,16.30
2023-01-28T13:38:25.724Z,17.00
2023-01-28T13:43:39.503Z,17.20
2023-01-28T13:48:51.371Z,16.70
2023-01-28T13:54:18.057Z,17.40
2023-01-28T13:59:54.019Z,15.30
2023-01-28T14:05:16.921Z,17.80
2023-01-28T14:10:45.062Z,16.00
2023-01-28T14:16:06.974Z,18.00
2023-01-28T14:21:21.289Z,17.30
2023-01-28T14:26:47.190Z,15.20
2023-01-28T14:31:53.779Z,14.40
2023-01-28T14:37:01.429Z,19.60
2023-01-28T14:42:14.204Z,18.20
2023-01-28T14:47:40.877Z,20.60
2023-01-28T14:52:58.599Z,20.50
2023-01-28T14:58:13.374Z,22.50
2023-01-28T15:03:26.888Z,24.60
2023-01-28T15:08:34.747Z,25.60
2023-01-28T15:14:00.451Z,21.80
2023-01-28T15:19:03.107Z,23.30
2023-01-28T15:24:06.239Z,21.30
2023-01-28T15:29:24.682Z,18.70
2023-01-28T15:34:31.532Z,20.00
2023-01-28T15:39:37.213Z,19.80
2023-01-28T15:44:48.716Z,22.70
2023-01-28T15:50:02.037Z,18.20
2023-01-28T15:55:06.612Z,19.10
2023-01-28T16:00:20.460Z,18.30
2023-01-28T16:05:39.289Z,18.60
2023-01-28T16:15:55.469Z,17.00
2023-01-28T16:21:00.416Z,16.20
2023-01-28T16:26:24.083Z,15.90
2023-01-28T16:31:27.116Z,16.40
2023-01-28T16:36:30.327Z,15.00
2023-01-28T16:41:39.943Z,15.60
2023-01-28T16:46:43.129Z,15.40
2023-01-28T16:51:46.967Z,13.50
2023-01-28T16:56:51.559Z,13.80
2023-01-28T17:01:59.668Z,14.50
2023-01-28T17:07:02.575Z,12.60
2023-01-28T17:12:08.356Z,11.80
2023-01-28T17:17:18.722Z,12.10
2023-01-28T17:22:21.400Z,13.50
2023-01-28T17:27:24.379Z,13.80
2023-01-28T17:32:26.896Z,12.80
2023-01-28T17:37:29.556Z,11.00
2023-01-28T17:42:34.715Z,13.20
2023-01-28T17:47:37.162Z,17.90
2023-01-28T17:52:41.433Z,19.50
2023-01-28T17:57:44.473Z,19.80
2023-01-28T18:02:50.876Z,22.10
2023-01-28T18:07:54.360Z,17.00
2023-01-28T18:12:58.442Z,16.50
2023-01-28T18:18:01.522Z,15.70
2023-01-28T18:23:04.169Z,16.00
2023-01-28T18:28:08.847Z,15.20
2023-01-28T18:33:11.544Z,15.70
2023-01-28T18:38:15.493Z,14.70
2023-01-28T18:43:18.179Z,14.10
2023-01-28T18:48:20.531Z,10.40
2023-01-28T18:53:25.226Z,10.60
2023-01-28T18:58:27.897Z,10.90
2023-01-28T19:03:31.037Z,10.00
2023-01-28T19:08:37.081Z,11.30
2023-01-28T19:13:43.582Z,9.70
2023-01-28T19:19:02.874Z,9.00
2023-01-28T19:24:09.732Z,7.80
2023-01-28T19:29:16.484Z,9.40
2023-01-28T19:34:20.887Z,9.20
2023-01-28T19:39:27.934Z,9.10
2023-01-28T19:44:33.989Z,10.10
2023-01-28T19:49:40.222Z,8.20
2023-01-28T19:54:43.520Z,8.70
2023-01-28T19:59:46.403Z,6.90
2023-01-28T20:05:00.311Z,6.20
2023-01-28T20:10:08.830Z,7.60
2023-01-28T20:15:15.145Z,6.50
2023-01-28T20:20:19.664Z,5.80
2023-01-28T20:25:23.276Z,6.30
2023-01-28T20:30:26.511Z,7.90
2023-01-28T20:35:29.116Z,9.00
2023-01-28T20:40:32.039Z,6.10
2023-01-28T20:45:36.015Z,3.80
2023-01-28T20:50:39.712Z,5.50
2023-01-28T20:55:44.675Z,6.20
2023-01-28T21:00:51.661Z,6.20
2023-01-28T21:05:55.532Z,6.20
2023-01-28T21:11:03.208Z,6.30
2023-01-28T21:16:07.258Z,4.90
2023-01-28T21:21:25.416Z,6.10
2023-01-28T21:26:28.519Z,6.20
2023-01-28T21:31:32.108Z,5.30
2023-01-28T21:36:36.954Z,4.70
2023-01-28T21:41:40.680Z,5.70
2023-01-28T21:46:43.053Z,4.90
2023-01-28T21:51:47.310Z,5.00
2023-01-28T21:56:51.709Z,4.90
2023-01-28T22:02:03.078Z,4.50
2023-01-28T22:07:11.667Z,5.10
2023-01-28T22:12:22.345Z,5.30
2023-01-28T22:17:26.200Z,4.30
2023-01-28T22:22:30.937Z,4.30
2023-01-28T22:27:36.114Z,4.00
2023-01-28T22:32:39.589Z,3.80
2023-01-28T22:37:43.228Z,5.30
2023-01-28T22:42:47.354Z,3.50
2023-01-28T22:47:51.096Z,3.40
2023-01-28T22:52:57.215Z,4.10
2023-01-28T22:58:00.437Z,4.90
2023-01-28T23:03:03.030Z,5.10
2023-01-28T23:08:12.193Z,4.50
2023-01-28T23:13:18.031Z,4.80
2023-01-28T23:18:48.481Z,5.50
2023-01-28T23:24:10.348Z,5.70
2023-01-28T23:29:12.613Z,5.20
2023-01-28T23:34:17.205Z,39.50
2023-01-28T23:39:20.712Z,19.00
2023-01-28T23:44:28.085Z,6.40
2023-01-28T23:49:31.523Z,6.90
2023-01-28T23:54:36.138Z,4.80
2023-01-28T23:59:40.493Z,6.80
